sensor_id;sensor_type;location;lat;lon;timestamp;pressure;altitude;pressure_sealevel;temperature;humidity
1616;BME280;801;47.982;7.810;2023-04-20T00:00:11;98494.41;;;9.63;100.00
1616;BME280;801;47.982;7.810;2023-04-20T00:02:38;98487.16;;;9.64;100.00
1616;BME280;801;47.982;7.810;2023-04-20T00:05:06;98477.06;;;9.44;100.00
1616;BME280;801;47.982;7.810;2023-04-20T00:07:34;98469.59;;;9.19;100.00
1616;BME280;801;47.982;7.810;2023-04-20T00:10:01;98467.97;;;9.45;100.00
1616;BME280;801;47.982;7.810;2023-04-20T00:12:28;98475.28;;;9.54;100.00
1616;BME280;801;47.982;7.810;2023-04-20T00:14:55;98472.84;;;9.53;100.00
1616;BME280;801;47.982;7.810;2023-04-20T00:17:21;98463.03;;;9.31;100.00
1616;BME280;801;47.982;7.810;2023-04-20T00:19:49;98454.28;;;9.14;100.00
1616;BME280;801;47.982;7.810;2023-04-20T00:22:16;98451.28;;;9.10;100.00
1616;BME280;801;47.982;7.810;2023-04-20T00:24:43;98450.94;;;9.02;100.00
1616;BME280;801;47.982;7.810;2023-04-20T00:27:10;98436.97;;;9.00;100.00
1616;BME280;801;47.982;7.810;2023-04-20T00:29:37;98435.97;;;9.06;100.00
1616;BME280;801;47.982;7.810;2023-04-20T00:32:03;98434.66;;;9.08;100.00
1616;BME280;801;47.982;7.810;2023-04-20T00:34:30;98431.69;;;9.05;100.00
1616;BME280;801;47.982;7.810;2023-04-20T00:36:56;98422.38;;;8.85;100.00
1616;BME280;801;47.982;7.810;2023-04-20T00:39:23;98420.78;;;8.84;100.00
1616;BME280;801;47.982;7.810;2023-04-20T00:41:51;98417.13;;;8.96;100.00
1616;BME280;801;47.982;7.810;2023-04-20T00:44:17;98412.19;;;8.82;100.00
1616;BME280;801;47.982;7.810;2023-04-20T00:46:45;98404.22;;;8.92;100.00
1616;BME280;801;47.982;7.810;2023-04-20T00:49:11;98401.44;;;9.09;100.00
1616;BME280;801;47.982;7.810;2023-04-20T00:51:38;98406.00;;;9.09;100.00
1616;BME280;801;47.982;7.810;2023-04-20T00:54:05;98403.63;;;8.85;100.00
1616;BME280;801;47.982;7.810;2023-04-20T00:56:31;98403.78;;;9.01;100.00
1616;BME280;801;47.982;7.810;2023-04-20T00:59:00;98400.00;;;9.02;100.00
1616;BME280;801;47.982;7.810;2023-04-20T01:01:27;98401.69;;;9.08;100.00
1616;BME280;801;47.982;7.810;2023-04-20T01:03:53;98390.56;;;8.94;100.00
1616;BME280;801;47.982;7.810;2023-04-20T01:06:20;98382.22;;;8.90;100.00
1616;BME280;801;47.982;7.810;2023-04-20T01:08:49;98380.19;;;9.03;100.00
1616;BME280;801;47.982;7.810;2023-04-20T01:11:16;98385.56;;;9.03;100.00
1616;BME280;801;47.982;7.810;2023-04-20T01:13:43;98392.53;;;9.04;100.00
1616;BME280;801;47.982;7.810;2023-04-20T01:16:11;98379.81;;;9.21;100.00
1616;BME280;801;47.982;7.810;2023-04-20T01:18:41;98375.22;;;9.17;100.00
1616;BME280;801;47.982;7.810;2023-04-20T01:21:09;98365.13;;;8.97;100.00
1616;BME280;801;47.982;7.810;2023-04-20T01:23:37;98363.66;;;9.11;100.00
1616;BME280;801;47.982;7.810;2023-04-20T01:26:05;98364.06;;;9.30;100.00
1616;BME280;801;47.982;7.810;2023-04-20T01:28:32;98364.06;;;9.30;100.00
1616;BME280;801;47.982;7.810;2023-04-20T01:30:58;98360.28;;;9.31;100.00
1616;BME280;801;47.982;7.810;2023-04-20T01:33:25;98357.19;;;9.07;100.00
1616;BME280;801;47.982;7.810;2023-04-20T01:35:51;98359.19;;;8.89;100.00
1616;BME280;801;47.982;7.810;2023-04-20T01:38:18;98356.25;;;8.91;100.00
1616;BME280;801;47.982;7.810;2023-04-20T01:40:47;98339.56;;;9.16;100.00
1616;BME280;801;47.982;7.810;2023-04-20T01:43:14;98337.59;;;9.06;100.00
1616;BME280;801;47.982;7.810;2023-04-20T01:45:41;98335.69;;;9.02;100.00
1616;BME280;801;47.982;7.810;2023-04-20T01:48:08;98331.94;;;8.98;100.00
1616;BME280;801;47.982;7.810;2023-04-20T01:50:34;98338.63;;;9.00;100.00
1616;BME280;801;47.982;7.810;2023-04-20T01:53:01;98333.19;;;8.90;100.00
1616;BME280;801;47.982;7.810;2023-04-20T01:55:27;98329.31;;;8.76;100.00
1616;BME280;801;47.982;7.810;2023-04-20T01:57:55;98321.97;;;8.66;100.00
1616;BME280;801;47.982;7.810;2023-04-20T02:00:23;98325.94;;;8.58;100.00
1616;BME280;801;47.982;7.810;2023-04-20T02:02:50;98325.50;;;8.66;100.00
1616;BME280;801;47.982;7.810;2023-04-20T02:05:16;98323.19;;;8.80;100.00
1616;BME280;801;47.982;7.810;2023-04-20T02:07:43;98322.47;;;8.90;100.00
1616;BME280;801;47.982;7.810;2023-04-20T02:10:10;98311.25;;;8.93;100.00
1616;BME280;801;47.982;7.810;2023-04-20T02:12:36;98305.66;;;9.00;100.00
1616;BME280;801;47.982;7.810;2023-04-20T02:15:05;98303.50;;;8.97;100.00
1616;BME280;801;47.982;7.810;2023-04-20T02:17:33;98309.41;;;8.99;100.00
1616;BME280;801;47.982;7.810;2023-04-20T02:20:00;98296.03;;;9.04;100.00
1616;BME280;801;47.982;7.810;2023-04-20T02:22:28;98303.03;;;9.05;100.00
1616;BME280;801;47.982;7.810;2023-04-20T02:24:59;98297.09;;;9.03;100.00
1616;BME280;801;47.982;7.810;2023-04-20T02:27:25;98296.34;;;9.07;100.00
1616;BME280;801;47.982;7.810;2023-04-20T02:29:52;98289.63;;;9.05;100.00
1616;BME280;801;47.982;7.810;2023-04-20T02:32:20;98291.50;;;9.04;100.00
1616;BME280;801;47.982;7.810;2023-04-20T02:34:46;98294.09;;;8.94;100.00
1616;BME280;801;47.982;7.810;2023-04-20T02:37:13;98289.28;;;8.96;100.00
1616;BME280;801;47.982;7.810;2023-04-20T02:39:39;98293.31;;;8.99;100.00
1616;BME280;801;47.982;7.810;2023-04-20T02:42:06;98289.88;;;9.03;100.00
1616;BME280;801;47.982;7.810;2023-04-20T02:44:32;98289.09;;;9.08;100.00
1616;BME280;801;47.982;7.810;2023-04-20T02:46:59;98277.72;;;8.90;100.00
1616;BME280;801;47.982;7.810;2023-04-20T02:49:27;98270.03;;;8.67;100.00
1616;BME280;801;47.982;7.810;2023-04-20T02:51:53;98271.56;;;8.58;100.00
1616;BME280;801;47.982;7.810;2023-04-20T02:54:20;98279.41;;;8.64;100.00
1616;BME280;801;47.982;7.810;2023-04-20T02:56:46;98286.94;;;8.40;100.00
1616;BME280;801;47.982;7.810;2023-04-20T02:59:13;98286.56;;;8.31;100.00
1616;BME280;801;47.982;7.810;2023-04-20T03:01:39;98278.91;;;8.72;100.00
1616;BME280;801;47.982;7.810;2023-04-20T03:04:06;98279.31;;;8.86;100.00
1616;BME280;801;47.982;7.810;2023-04-20T03:06:34;98273.88;;;8.76;100.00
1616;BME280;801;47.982;7.810;2023-04-20T03:09:00;98283.44;;;8.67;100.00
1616;BME280;801;47.982;7.810;2023-04-20T03:11:28;98271.28;;;8.54;100.00
1616;BME280;801;47.982;7.810;2023-04-20T03:13:55;98269.16;;;8.56;100.00
1616;BME280;801;47.982;7.810;2023-04-20T03:16:21;98261.44;;;8.65;100.00
1616;BME280;801;47.982;7.810;2023-04-20T03:18:48;98262.47;;;8.59;100.00
1616;BME280;801;47.982;7.810;2023-04-20T03:21:14;98264.75;;;8.77;100.00
1616;BME280;801;47.982;7.810;2023-04-20T03:23:43;98262.97;;;8.88;100.00
1616;BME280;801;47.982;7.810;2023-04-20T03:26:09;98260.50;;;8.81;100.00
1616;BME280;801;47.982;7.810;2023-04-20T03:28:37;98261.91;;;8.89;100.00
1616;BME280;801;47.982;7.810;2023-04-20T03:31:03;98274.00;;;8.97;100.00
1616;BME280;801;47.982;7.810;2023-04-20T03:33:30;98262.69;;;8.84;100.00
1616;BME280;801;47.982;7.810;2023-04-20T03:35:57;98259.59;;;8.70;100.00
1616;BME280;801;47.982;7.810;2023-04-20T03:38:23;98262.56;;;8.69;100.00
1616;BME280;801;47.982;7.810;2023-04-20T03:40:51;98255.09;;;8.71;100.00
1616;BME280;801;47.982;7.810;2023-04-20T03:43:18;98251.34;;;8.77;100.00
1616;BME280;801;47.982;7.810;2023-04-20T03:45:45;98245.38;;;8.65;100.00
1616;BME280;801;47.982;7.810;2023-04-20T03:48:11;98243.16;;;8.57;100.00
1616;BME280;801;47.982;7.810;2023-04-20T03:50:38;98242.25;;;8.73;100.00
1616;BME280;801;47.982;7.810;2023-04-20T03:53:04;98245.19;;;8.77;100.00
1616;BME280;801;47.982;7.810;2023-04-20T03:55:31;98237.03;;;8.93;100.00
1616;BME280;801;47.982;7.810;2023-04-20T03:57:59;98240.19;;;8.90;100.00
1616;BME280;801;47.982;7.810;2023-04-20T04:00:25;98235.91;;;8.89;100.00
1616;BME280;801;47.982;7.810;2023-04-20T04:02:52;98247.38;;;8.80;100.00
1616;BME280;801;47.982;7.810;2023-04-20T04:05:18;98242.50;;;8.71;100.00
1616;BME280;801;47.982;7.810;2023-04-20T04:07:45;98236.25;;;8.66;100.00
1616;BME280;801;47.982;7.810;2023-04-20T04:10:12;98234.19;;;8.41;100.00
1616;BME280;801;47.982;7.810;2023-04-20T04:12:40;98232.38;;;8.46;100.00
1616;BME280;801;47.982;7.810;2023-04-20T04:15:09;98237.81;;;8.29;100.00
1616;BME280;801;47.982;7.810;2023-04-20T04:17:36;98229.06;;;8.39;100.00
1616;BME280;801;47.982;7.810;2023-04-20T04:20:03;98227.69;;;8.37;100.00
1616;BME280;801;47.982;7.810;2023-04-20T04:22:32;98228.06;;;8.45;100.00
1616;BME280;801;47.982;7.810;2023-04-20T04:24:58;98226.38;;;8.39;100.00
1616;BME280;801;47.982;7.810;2023-04-20T04:27:25;98226.00;;;8.25;100.00
1616;BME280;801;47.982;7.810;2023-04-20T04:29:54;98231.22;;;7.88;100.00
1616;BME280;801;47.982;7.810;2023-04-20T04:32:22;98221.16;;;7.95;100.00
1616;BME280;801;47.982;7.810;2023-04-20T04:34:49;98232.41;;;7.48;100.00
1616;BME280;801;47.982;7.810;2023-04-20T04:37:17;98227.09;;;7.31;100.00
1616;BME280;801;47.982;7.810;2023-04-20T04:39:44;98228.88;;;7.25;100.00
1616;BME280;801;47.982;7.810;2023-04-20T04:42:10;98231.16;;;7.34;100.00
1616;BME280;801;47.982;7.810;2023-04-20T04:44:37;98236.38;;;7.45;100.00
1616;BME280;801;47.982;7.810;2023-04-20T04:47:04;98235.56;;;7.45;100.00
1616;BME280;801;47.982;7.810;2023-04-20T04:49:32;98235.50;;;7.40;100.00
1616;BME280;801;47.982;7.810;2023-04-20T04:51:59;98225.25;;;7.32;100.00
1616;BME280;801;47.982;7.810;2023-04-20T04:54:26;98229.16;;;7.24;100.00
1616;BME280;801;47.982;7.810;2023-04-20T04:56:53;98232.31;;;7.21;100.00
1616;BME280;801;47.982;7.810;2023-04-20T04:59:19;98225.47;;;7.08;100.00
1616;BME280;801;47.982;7.810;2023-04-20T05:01:46;98233.56;;;6.96;100.00
1616;BME280;801;47.982;7.810;2023-04-20T05:04:12;98231.22;;;7.00;100.00
1616;BME280;801;47.982;7.810;2023-04-20T05:06:40;98225.59;;;6.79;100.00
1616;BME280;801;47.982;7.810;2023-04-20T05:09:07;98231.06;;;6.90;100.00
1616;BME280;801;47.982;7.810;2023-04-20T05:11:33;98231.22;;;7.00;100.00
1616;BME280;801;47.982;7.810;2023-04-20T05:14:00;98233.19;;;6.88;100.00
1616;BME280;801;47.982;7.810;2023-04-20T05:16:27;98239.81;;;7.02;100.00
1616;BME280;801;47.982;7.810;2023-04-20T05:18:54;98238.69;;;6.98;100.00
1616;BME280;801;47.982;7.810;2023-04-20T05:21:20;98239.94;;;7.12;100.00
1616;BME280;801;47.982;7.810;2023-04-20T05:23:48;98242.25;;;6.86;100.00
1616;BME280;801;47.982;7.810;2023-04-20T05:26:15;98244.44;;;7.28;100.00
1616;BME280;801;47.982;7.810;2023-04-20T05:28:42;98246.56;;;7.26;100.00
1616;BME280;801;47.982;7.810;2023-04-20T05:31:08;98244.66;;;7.05;100.00
1616;BME280;801;47.982;7.810;2023-04-20T05:33:35;98245.28;;;7.12;100.00
1616;BME280;801;47.982;7.810;2023-04-20T05:36:02;98246.41;;;7.16;100.00
1616;BME280;801;47.982;7.810;2023-04-20T05:38:28;98250.09;;;7.32;100.00
1616;BME280;801;47.982;7.810;2023-04-20T05:40:56;98250.94;;;7.33;100.00
1616;BME280;801;47.982;7.810;2023-04-20T05:43:23;98242.69;;;7.17;100.00
1616;BME280;801;47.982;7.810;2023-04-20T05:45:50;98250.72;;;7.00;100.00
1616;BME280;801;47.982;7.810;2023-04-20T05:48:16;98253.44;;;6.83;100.00
1616;BME280;801;47.982;7.810;2023-04-20T05:50:43;98253.44;;;6.67;100.00
1616;BME280;801;47.982;7.810;2023-04-20T05:53:09;98252.41;;;6.68;100.00
1616;BME280;801;47.982;7.810;2023-04-20T05:55:36;98247.94;;;6.73;100.00
1616;BME280;801;47.982;7.810;2023-04-20T05:58:04;98240.88;;;6.67;100.00
1616;BME280;801;47.982;7.810;2023-04-20T06:00:30;98241.63;;;6.79;100.00
1616;BME280;801;47.982;7.810;2023-04-20T06:02:57;98246.41;;;6.77;100.00
1616;BME280;801;47.982;7.810;2023-04-20T06:05:23;98247.44;;;6.93;100.00
1616;BME280;801;47.982;7.810;2023-04-20T06:07:50;98247.16;;;7.12;100.00
1616;BME280;801;47.982;7.810;2023-04-20T06:10:17;98255.16;;;7.12;100.00
1616;BME280;801;47.982;7.810;2023-04-20T06:12:43;98253.84;;;7.14;100.00
1616;BME280;801;47.982;7.810;2023-04-20T06:15:11;98248.88;;;7.01;100.00
1616;BME280;801;47.982;7.810;2023-04-20T06:17:38;98254.22;;;7.01;100.00
1616;BME280;801;47.982;7.810;2023-04-20T06:20:06;98247.47;;;7.15;100.00
1616;BME280;801;47.982;7.810;2023-04-20T06:22:33;98249.47;;;7.25;100.00
1616;BME280;801;47.982;7.810;2023-04-20T06:24:59;98242.59;;;7.12;100.00
1616;BME280;801;47.982;7.810;2023-04-20T06:27:27;98241.25;;;7.10;100.00
1616;BME280;801;47.982;7.810;2023-04-20T06:29:53;98243.84;;;7.21;100.00
1616;BME280;801;47.982;7.810;2023-04-20T06:32:21;98239.06;;;7.23;100.00
1616;BME280;801;47.982;7.810;2023-04-20T06:34:48;98234.44;;;7.41;100.00
1616;BME280;801;47.982;7.810;2023-04-20T06:37:15;98241.84;;;7.34;100.00
1616;BME280;801;47.982;7.810;2023-04-20T06:39:41;98249.75;;;7.23;100.00
1616;BME280;801;47.982;7.810;2023-04-20T06:42:08;98253.81;;;7.48;100.00
1616;BME280;801;47.982;7.810;2023-04-20T06:44:34;98242.47;;;7.63;100.00
1616;BME280;801;47.982;7.810;2023-04-20T06:47:01;98251.75;;;7.55;100.00
1616;BME280;801;47.982;7.810;2023-04-20T06:49:29;98255.16;;;7.73;100.00
1616;BME280;801;47.982;7.810;2023-04-20T06:51:55;98243.56;;;7.89;100.00
1616;BME280;801;47.982;7.810;2023-04-20T06:54:22;98254.09;;;7.74;100.00
1616;BME280;801;47.982;7.810;2023-04-20T06:56:48;98247.75;;;7.80;100.00
1616;BME280;801;47.982;7.810;2023-04-20T06:59:15;98244.47;;;7.73;100.00
1616;BME280;801;47.982;7.810;2023-04-20T07:01:42;98250.25;;;7.64;100.00
1616;BME280;801;47.982;7.810;2023-04-20T07:04:09;98248.44;;;7.48;100.00
1616;BME280;801;47.982;7.810;2023-04-20T07:06:37;98243.72;;;7.55;100.00
1616;BME280;801;47.982;7.810;2023-04-20T07:09:03;98246.59;;;7.48;100.00
1616;BME280;801;47.982;7.810;2023-04-20T07:11:30;98248.44;;;7.48;100.00
1616;BME280;801;47.982;7.810;2023-04-20T07:13:56;98244.47;;;7.51;100.00
1616;BME280;801;47.982;7.810;2023-04-20T07:16:23;98244.09;;;7.42;100.00
1616;BME280;801;47.982;7.810;2023-04-20T07:18:49;98241.72;;;7.67;100.00
1616;BME280;801;47.982;7.810;2023-04-20T07:21:16;98243.41;;;7.74;100.00
1616;BME280;801;47.982;7.810;2023-04-20T07:23:44;98239.16;;;7.78;100.00
1616;BME280;801;47.982;7.810;2023-04-20T07:26:12;98237.16;;;7.90;100.00
1616;BME280;801;47.982;7.810;2023-04-20T07:28:38;98235.38;;;8.01;100.00
1616;BME280;801;47.982;7.810;2023-04-20T07:31:05;98232.88;;;7.89;100.00
1616;BME280;801;47.982;7.810;2023-04-20T07:33:31;98227.13;;;8.02;100.00
1616;BME280;801;47.982;7.810;2023-04-20T07:36:00;98237.63;;;8.09;100.00
1616;BME280;801;47.982;7.810;2023-04-20T07:38:26;98237.72;;;8.19;100.00
1616;BME280;801;47.982;7.810;2023-04-20T07:40:54;98235.91;;;8.25;100.00
1616;BME280;801;47.982;7.810;2023-04-20T07:43:20;98235.78;;;8.15;100.00
1616;BME280;801;47.982;7.810;2023-04-20T07:45:47;98228.63;;;8.20;100.00
1616;BME280;801;47.982;7.810;2023-04-20T07:48:13;98229.59;;;8.09;100.00
1616;BME280;801;47.982;7.810;2023-04-20T07:50:40;98229.34;;;8.10;100.00
1616;BME280;801;47.982;7.810;2023-04-20T07:53:06;98221.66;;;7.92;100.00
1616;BME280;801;47.982;7.810;2023-04-20T07:55:33;98230.44;;;8.15;100.00
1616;BME280;801;47.982;7.810;2023-04-20T07:58:01;98234.75;;;7.66;100.00
1616;BME280;801;47.982;7.810;2023-04-20T08:00:28;98234.94;;;7.60;100.00
1616;BME280;801;47.982;7.810;2023-04-20T08:02:54;98233.88;;;7.83;100.00
1616;BME280;801;47.982;7.810;2023-04-20T08:05:21;98228.13;;;7.96;100.00
1616;BME280;801;47.982;7.810;2023-04-20T08:07:48;98223.69;;;8.07;100.00
1616;BME280;801;47.982;7.810;2023-04-20T08:10:15;98221.53;;;8.04;100.00
1616;BME280;801;47.982;7.810;2023-04-20T08:12:41;98218.50;;;7.95;100.00
1616;BME280;801;47.982;7.810;2023-04-20T08:15:10;98220.25;;;8.11;100.00
1616;BME280;801;47.982;7.810;2023-04-20T08:17:36;98212.66;;;8.03;100.00
1616;BME280;801;47.982;7.810;2023-04-20T08:20:04;98215.13;;;8.10;100.00
1616;BME280;801;47.982;7.810;2023-04-20T08:22:31;98206.41;;;8.20;100.00
1616;BME280;801;47.982;7.810;2023-04-20T08:24:58;98210.25;;;8.29;100.00
1616;BME280;801;47.982;7.810;2023-04-20T08:27:24;98208.78;;;8.43;100.00
1616;BME280;801;47.982;7.810;2023-04-20T08:29:53;98206.69;;;8.23;100.00
1616;BME280;801;47.982;7.810;2023-04-20T08:32:22;98205.28;;;8.43;100.00
1616;BME280;801;47.982;7.810;2023-04-20T08:34:50;98212.88;;;8.51;100.00
1616;BME280;801;47.982;7.810;2023-04-20T08:37:17;98210.81;;;8.63;100.00
1616;BME280;801;47.982;7.810;2023-04-20T08:39:44;98208.91;;;8.59;100.00
1616;BME280;801;47.982;7.810;2023-04-20T08:42:11;98214.41;;;8.79;100.00
1616;BME280;801;47.982;7.810;2023-04-20T08:44:37;98207.13;;;8.75;100.00
1616;BME280;801;47.982;7.810;2023-04-20T08:47:04;98207.66;;;8.71;100.00
1616;BME280;801;47.982;7.810;2023-04-20T08:49:32;98203.06;;;9.09;100.00
1616;BME280;801;47.982;7.810;2023-04-20T08:51:59;98207.88;;;9.02;100.00
1616;BME280;801;47.982;7.810;2023-04-20T08:54:26;98204.34;;;8.97;100.00
1616;BME280;801;47.982;7.810;2023-04-20T08:56:53;98202.72;;;8.96;100.00
1616;BME280;801;47.982;7.810;2023-04-20T08:59:19;98207.16;;;9.22;100.00
1616;BME280;801;47.982;7.810;2023-04-20T09:01:46;98206.47;;;9.47;100.00
1616;BME280;801;47.982;7.810;2023-04-20T09:04:17;98207.75;;;9.34;100.00
1616;BME280;801;47.982;7.810;2023-04-20T09:06:45;98198.06;;;9.28;100.00
1616;BME280;801;47.982;7.810;2023-04-20T09:09:14;98195.38;;;9.23;100.00
1616;BME280;801;47.982;7.810;2023-04-20T09:11:41;98194.34;;;9.34;100.00
1616;BME280;801;47.982;7.810;2023-04-20T09:14:09;98196.00;;;9.51;100.00
1616;BME280;801;47.982;7.810;2023-04-20T09:16:37;98188.56;;;9.68;100.00
1616;BME280;801;47.982;7.810;2023-04-20T09:19:04;98190.19;;;9.80;100.00
1616;BME280;801;47.982;7.810;2023-04-20T09:21:30;98186.47;;;9.81;100.00
1616;BME280;801;47.982;7.810;2023-04-20T09:24:00;98185.38;;;9.76;100.00
1616;BME280;801;47.982;7.810;2023-04-20T09:26:30;98184.72;;;9.44;100.00
1616;BME280;801;47.982;7.810;2023-04-20T09:28:58;98181.84;;;9.71;100.00
1616;BME280;801;47.982;7.810;2023-04-20T09:31:25;98181.16;;;10.11;100.00
1616;BME280;801;47.982;7.810;2023-04-20T09:33:56;98173.34;;;10.15;100.00
1616;BME280;801;47.982;7.810;2023-04-20T09:36:23;98173.06;;;10.27;100.00
1616;BME280;801;47.982;7.810;2023-04-20T09:39:02;98170.13;;;10.13;100.00
1616;BME280;801;47.982;7.810;2023-04-20T09:41:30;98166.63;;;10.17;100.00
1616;BME280;801;47.982;7.810;2023-04-20T09:43:57;98168.81;;;10.31;100.00
1616;BME280;801;47.982;7.810;2023-04-20T09:46:27;98169.88;;;10.55;100.00
1616;BME280;801;47.982;7.810;2023-04-20T09:48:54;98172.31;;;10.42;100.00
1616;BME280;801;47.982;7.810;2023-04-20T09:51:21;98165.03;;;10.57;100.00
1616;BME280;801;47.982;7.810;2023-04-20T09:53:48;98173.34;;;10.82;100.00
1616;BME280;801;47.982;7.810;2023-04-20T09:56:16;98170.06;;;11.00;100.00
1616;BME280;801;47.982;7.810;2023-04-20T09:58:44;98166.59;;;10.94;100.00
1616;BME280;801;47.982;7.810;2023-04-20T10:01:11;98171.47;;;10.82;98.96
1616;BME280;801;47.982;7.810;2023-04-20T10:03:40;98162.25;;;11.09;100.00
1616;BME280;801;47.982;7.810;2023-04-20T10:06:17;98169.84;;;11.61;100.00
1616;BME280;801;47.982;7.810;2023-04-20T10:08:43;98174.31;;;11.81;96.75
1616;BME280;801;47.982;7.810;2023-04-20T10:11:10;98176.00;;;11.67;94.45
1616;BME280;801;47.982;7.810;2023-04-20T10:13:38;98162.53;;;11.72;96.61
1616;BME280;801;47.982;7.810;2023-04-20T10:16:16;98167.28;;;11.91;93.94
1616;BME280;801;47.982;7.810;2023-04-20T10:18:42;98159.63;;;12.08;93.24
1616;BME280;801;47.982;7.810;2023-04-20T10:21:09;98152.22;;;11.84;91.78
1616;BME280;801;47.982;7.810;2023-04-20T10:23:46;98164.44;;;12.11;92.11
1616;BME280;801;47.982;7.810;2023-04-20T10:26:12;98169.34;;;12.04;89.36
1616;BME280;801;47.982;7.810;2023-04-20T10:28:42;98176.44;;;11.84;91.87
1616;BME280;801;47.982;7.810;2023-04-20T10:31:10;98164.19;;;11.58;90.20
1616;BME280;801;47.982;7.810;2023-04-20T10:33:50;98149.38;;;11.66;94.17
1616;BME280;801;47.982;7.810;2023-04-20T10:36:25;98152.81;;;11.71;93.80
1616;BME280;801;47.982;7.810;2023-04-20T10:38:52;98153.63;;;11.72;91.13
1616;BME280;801;47.982;7.810;2023-04-20T10:41:20;98156.09;;;11.63;91.30
1616;BME280;801;47.982;7.810;2023-04-20T10:43:48;98153.09;;;11.70;92.46
1616;BME280;801;47.982;7.810;2023-04-20T10:46:15;98149.03;;;11.77;93.32
1616;BME280;801;47.982;7.810;2023-04-20T10:48:53;98151.03;;;12.06;92.17
1616;BME280;801;47.982;7.810;2023-04-20T10:51:19;98153.31;;;11.83;86.93
1616;BME280;801;47.982;7.810;2023-04-20T10:53:57;98149.81;;;11.28;86.32
1616;BME280;801;47.982;7.810;2023-04-20T10:56:23;98149.34;;;11.00;86.27
1616;BME280;801;47.982;7.810;2023-04-20T10:58:52;98143.34;;;11.29;87.25
1616;BME280;801;47.982;7.810;2023-04-20T11:01:19;98141.34;;;11.55;88.79
1616;BME280;801;47.982;7.810;2023-04-20T11:03:48;98135.78;;;11.86;89.62
1616;BME280;801;47.982;7.810;2023-04-20T11:06:15;98142.66;;;12.08;89.91
1616;BME280;801;47.982;7.810;2023-04-20T11:08:42;98135.91;;;12.10;87.21
1616;BME280;801;47.982;7.810;2023-04-20T11:11:19;98134.66;;;11.97;87.31
1616;BME280;801;47.982;7.810;2023-04-20T11:13:46;98134.34;;;12.04;87.81
1616;BME280;801;47.982;7.810;2023-04-20T11:16:15;98128.16;;;12.03;87.88
1616;BME280;801;47.982;7.810;2023-04-20T11:18:52;98130.47;;;12.15;89.58
1616;BME280;801;47.982;7.810;2023-04-20T11:21:19;98127.38;;;11.98;90.25
1616;BME280;801;47.982;7.810;2023-04-20T11:23:46;98133.28;;;12.00;93.04
1616;BME280;801;47.982;7.810;2023-04-20T11:26:13;98129.84;;;11.89;97.54
1616;BME280;801;47.982;7.810;2023-04-20T11:28:50;98126.06;;;11.40;100.00
1616;BME280;801;47.982;7.810;2023-04-20T11:31:18;98126.78;;;11.61;100.00
1616;BME280;801;47.982;7.810;2023-04-20T11:33:45;98125.72;;;11.57;100.00
1616;BME280;801;47.982;7.810;2023-04-20T11:36:17;98133.63;;;11.38;100.00
1616;BME280;801;47.982;7.810;2023-04-20T11:38:44;98123.19;;;11.76;100.00
1616;BME280;801;47.982;7.810;2023-04-20T11:41:11;98117.25;;;11.74;100.00
1616;BME280;801;47.982;7.810;2023-04-20T11:43:37;98124.22;;;11.86;100.00
1616;BME280;801;47.982;7.810;2023-04-20T11:46:11;98123.19;;;11.76;100.00
1616;BME280;801;47.982;7.810;2023-04-20T11:48:39;98118.94;;;11.70;100.00
1616;BME280;801;47.982;7.810;2023-04-20T11:51:06;98120.78;;;11.75;100.00
1616;BME280;801;47.982;7.810;2023-04-20T11:53:32;98122.03;;;11.93;97.79
1616;BME280;801;47.982;7.810;2023-04-20T11:55:59;98116.66;;;11.93;100.00
1616;BME280;801;47.982;7.810;2023-04-20T11:58:25;98116.75;;;12.12;100.00
1616;BME280;801;47.982;7.810;2023-04-20T12:00:52;98113.75;;;12.18;95.21
1616;BME280;801;47.982;7.810;2023-04-20T12:03:18;98117.53;;;12.17;96.72
1616;BME280;801;47.982;7.810;2023-04-20T12:05:46;98111.34;;;12.17;97.13
1616;BME280;801;47.982;7.810;2023-04-20T12:08:13;98116.84;;;12.36;97.70
1616;BME280;801;47.982;7.810;2023-04-20T12:10:41;98111.91;;;12.43;94.39
1616;BME280;801;47.982;7.810;2023-04-20T12:13:08;98112.97;;;12.47;93.25
1616;BME280;801;47.982;7.810;2023-04-20T12:15:34;98113.03;;;12.42;90.52
1616;BME280;801;47.982;7.810;2023-04-20T12:18:01;98109.59;;;12.31;91.41
1616;BME280;801;47.982;7.810;2023-04-20T12:20:28;98106.78;;;12.12;89.77
1616;BME280;801;47.982;7.810;2023-04-20T12:22:56;98105.66;;;12.18;90.63
1616;BME280;801;47.982;7.810;2023-04-20T12:25:22;98102.31;;;12.32;88.70
1616;BME280;801;47.982;7.810;2023-04-20T12:27:48;98105.66;;;12.23;88.36
1616;BME280;801;47.982;7.810;2023-04-20T12:30:15;98103.84;;;12.43;89.86
1616;BME280;801;47.982;7.810;2023-04-20T12:32:42;98100.41;;;12.37;89.00
1616;BME280;801;47.982;7.810;2023-04-20T12:35:09;98098.63;;;12.22;87.85
1616;BME280;801;47.982;7.810;2023-04-20T12:37:35;98089.84;;;12.41;87.93
1616;BME280;801;47.982;7.810;2023-04-20T12:40:04;98091.84;;;12.59;87.96
1616;BME280;801;47.982;7.810;2023-04-20T12:42:31;98092.75;;;12.74;85.76
1616;BME280;801;47.982;7.810;2023-04-20T12:44:58;98087.78;;;12.86;81.69
1616;BME280;801;47.982;7.810;2023-04-20T12:47:24;98087.00;;;13.04;82.92
1616;BME280;801;47.982;7.810;2023-04-20T12:49:51;98076.53;;;13.22;85.13
1616;BME280;801;47.982;7.810;2023-04-20T12:52:18;98083.00;;;13.64;81.62
1616;BME280;801;47.982;7.810;2023-04-20T12:54:44;98070.69;;;13.58;80.57
1616;BME280;801;47.982;7.810;2023-04-20T12:57:12;98069.28;;;14.12;78.71
1616;BME280;801;47.982;7.810;2023-04-20T12:59:39;98073.94;;;14.72;72.86
1616;BME280;801;47.982;7.810;2023-04-20T13:02:05;98064.69;;;14.59;73.94
1616;BME280;801;47.982;7.810;2023-04-20T13:04:32;98069.97;;;15.84;69.63
1616;BME280;801;47.982;7.810;2023-04-20T13:07:00;98068.16;;;16.24;62.02
1616;BME280;801;47.982;7.810;2023-04-20T13:09:27;98069.31;;;15.00;60.92
1616;BME280;801;47.982;7.810;2023-04-20T13:11:53;98076.84;;;15.03;63.20
1616;BME280;801;47.982;7.810;2023-04-20T13:14:21;98075.13;;;15.07;67.46
1616;BME280;801;47.982;7.810;2023-04-20T13:16:48;98083.56;;;14.92;64.69
1616;BME280;801;47.982;7.810;2023-04-20T13:19:14;98077.91;;;15.30;61.97
1616;BME280;801;47.982;7.810;2023-04-20T13:21:41;98078.41;;;15.04;62.41
1616;BME280;801;47.982;7.810;2023-04-20T13:24:07;98067.50;;;15.23;63.57
1616;BME280;801;47.982;7.810;2023-04-20T13:26:34;98069.25;;;15.78;62.51
1616;BME280;801;47.982;7.810;2023-04-20T13:29:01;98062.41;;;15.44;60.18
1616;BME280;801;47.982;7.810;2023-04-20T13:31:30;98061.50;;;15.12;63.10